Heber, California
Current Conditions -  °F | °C
As of 6:53 AM on Thursday 30 Oct 2014 (Local Time) from KIPL Reporting Station
Clear Clear  
Wind Chill: 59°   Ceiling: Unl
Heat Index: 59°   Visibility: 10mi
Dew Point: 34°   Wind: 3mph
Humidity: 39%   Direction: 290°WNW
Pressure: 29.93"   Gusts: NA
Location:  32.73°N, 115.53°W
Report Text: KIPL 301353Z AUTO 29003KT 10SM CLR 15/01 A2993 RMK AO2 SLP136 T01500011
Loading
Personal Weather Stations






























Interactive Weather Map
Tropical Storm Tracking
New forecast layout! Learn more

10-Day Weather Forecast

Advertisements
Track Severe Weather on mobile